createdAt,value
2023-01-12T00:01:55.915Z,1.05
2023-01-12T00:04:22.541Z,0.60
2023-01-12T00:06:49.057Z,1.05
2023-01-12T00:09:15.497Z,0.38
2023-01-12T00:11:41.963Z,1.90
2023-01-12T00:14:09.551Z,0.52
2023-01-12T00:16:39.721Z,1.05
2023-01-12T00:19:15.870Z,0.93
2023-01-12T00:22:12.667Z,0.87
2023-01-12T00:24:45.731Z,0.60
2023-01-12T00:27:15.840Z,0.65
2023-01-12T00:29:42.727Z,1.25
2023-01-12T00:32:15.273Z,2.40
2023-01-12T00:34:43.054Z,0.53
2023-01-12T00:37:10.227Z,1.15
2023-01-12T00:39:40.471Z,1.02
2023-01-12T00:42:27.100Z,1.25
2023-01-12T00:45:12.119Z,0.90
2023-01-12T00:47:42.915Z,0.65
2023-01-12T00:50:09.467Z,0.80
2023-01-12T00:52:36.467Z,0.85
2023-01-12T00:55:16.140Z,1.00
2023-01-12T00:57:48.683Z,1.02
2023-01-12T01:00:16.235Z,1.27
2023-01-12T01:02:43.680Z,1.42
2023-01-12T01:05:10.236Z,1.50
2023-01-12T01:07:37.480Z,3.45
2023-01-12T01:10:04.131Z,1.15
2023-01-12T01:12:32.915Z,2.13
2023-01-12T01:14:59.442Z,2.15
2023-01-12T01:17:26.277Z,1.90
2023-01-12T01:19:52.820Z,1.20
2023-01-12T01:22:19.570Z,1.63
2023-01-12T01:24:47.877Z,1.67
2023-01-12T01:27:14.434Z,1.08
2023-01-12T01:29:41.275Z,3.15
2023-01-12T01:32:07.852Z,1.52
2023-01-12T01:34:34.489Z,1.40
2023-01-12T01:37:00.965Z,1.87
2023-01-12T01:39:27.459Z,1.77
2023-01-12T01:41:54.843Z,1.30
2023-01-12T01:44:30.500Z,1.75
2023-01-12T01:47:14.746Z,2.97
2023-01-12T01:49:46.368Z,1.80
2023-01-12T01:52:18.363Z,1.70
2023-01-12T01:54:59.393Z,1.45
2023-01-12T01:57:33.098Z,1.65
2023-01-12T02:00:01.258Z,1.98
2023-01-12T02:02:27.983Z,1.20
2023-01-12T02:04:56.697Z,1.63
2023-01-12T02:07:23.931Z,1.80
2023-01-12T02:09:50.841Z,1.20
2023-01-12T02:12:36.448Z,1.77
2023-01-12T02:15:22.131Z,1.27
2023-01-12T02:18:10.724Z,1.73
2023-01-12T02:20:55.216Z,1.30
2023-01-12T02:23:40.697Z,0.82
2023-01-12T02:26:26.055Z,1.23
2023-01-12T02:29:13.161Z,1.27
2023-01-12T02:31:48.763Z,0.65
2023-01-12T02:34:15.235Z,0.70
2023-01-12T02:37:07.174Z,0.55
2023-01-12T02:39:43.962Z,0.60
2023-01-12T02:42:44.102Z,0.40
2023-01-12T02:45:16.796Z,0.63
2023-01-12T02:48:13.922Z,0.40
2023-01-12T02:50:59.442Z,0.25
2023-01-12T02:53:43.372Z,0.73
2023-01-12T02:56:13.155Z,0.30
2023-01-12T02:58:47.868Z,0.30
2023-01-12T03:01:17.006Z,0.40
2023-01-12T03:03:43.821Z,0.52
2023-01-12T03:06:16.479Z,0.20
2023-01-12T03:08:45.113Z,0.30
2023-01-12T03:11:16.817Z,0.20
2023-01-12T03:14:03.576Z,0.50
2023-01-12T03:16:35.154Z,0.30
2023-01-12T03:19:09.410Z,0.20
2023-01-12T03:21:48.152Z,0.40
2023-01-12T03:24:19.889Z,0.40
2023-01-12T03:26:54.338Z,0.73
2023-01-12T03:29:34.108Z,0.57
2023-01-12T03:32:00.905Z,0.47
2023-01-12T03:34:28.677Z,0.80
2023-01-12T03:36:55.223Z,1.02
2023-01-12T03:39:24.752Z,0.60
2023-01-12T03:42:01.811Z,0.63
2023-01-12T03:44:37.444Z,0.90
2023-01-12T03:47:13.278Z,0.50
2023-01-12T03:49:49.952Z,0.68
2023-01-12T03:52:18.096Z,0.55
2023-01-12T03:54:46.558Z,0.60
2023-01-12T03:57:13.951Z,0.70
2023-01-12T03:59:41.465Z,0.30
2023-01-12T04:02:08.278Z,0.30
2023-01-12T04:04:35.114Z,0.80
2023-01-12T04:07:02.013Z,0.20
2023-01-12T04:09:28.892Z,0.65
2023-01-12T04:12:10.542Z,0.70
2023-01-12T04:14:41.817Z,0.22
2023-01-12T04:17:10.500Z,0.25
2023-01-12T04:19:37.849Z,0.28
2023-01-12T04:22:23.004Z,0.30
2023-01-12T04:24:49.828Z,0.40
2023-01-12T04:27:17.513Z,0.30
2023-01-12T04:29:44.873Z,0.45
2023-01-12T04:32:11.806Z,0.20
2023-01-12T04:34:39.477Z,0.68
2023-01-12T04:37:06.046Z,0.20
2023-01-12T04:39:32.665Z,0.32
2023-01-12T04:41:59.189Z,0.57
2023-01-12T04:44:25.807Z,0.20
2023-01-12T04:46:52.385Z,0.30
2023-01-12T04:49:18.943Z,0.80
2023-01-12T04:51:46.180Z,0.57
2023-01-12T04:54:13.042Z,0.28
2023-01-12T04:56:39.708Z,0.30
2023-01-12T04:59:07.480Z,0.40
2023-01-12T05:01:34.242Z,0.30
2023-01-12T05:04:01.090Z,0.85
2023-01-12T05:06:28.688Z,0.20
2023-01-12T05:09:13.860Z,0.50
2023-01-12T05:11:40.509Z,0.20
2023-01-12T05:14:07.199Z,0.30
2023-01-12T05:16:33.869Z,0.20
2023-01-12T05:19:00.419Z,0.30
2023-01-12T05:21:27.005Z,0.40
2023-01-12T05:23:53.486Z,0.40
2023-01-12T05:26:20.584Z,0.80
2023-01-12T05:28:51.108Z,0.75
2023-01-12T05:31:19.649Z,0.20
2023-01-12T05:33:47.308Z,0.30
2023-01-12T05:36:15.679Z,0.63
2023-01-12T05:38:42.661Z,0.60
2023-01-12T05:41:14.958Z,0.20
2023-01-12T05:43:51.296Z,0.22
2023-01-12T05:46:30.553Z,0.15
2023-01-12T05:48:58.037Z,0.15
2023-01-12T05:51:26.963Z,0.17
2023-01-12T05:53:54.992Z,0.73
2023-01-12T05:56:27.395Z,0.20
2023-01-12T05:58:56.793Z,0.30
2023-01-12T06:01:25.066Z,0.10
2023-01-12T06:03:53.476Z,0.20
2023-01-12T06:06:21.792Z,0.95
2023-01-12T06:08:50.634Z,0.20
2023-01-12T06:11:39.514Z,0.13
2023-01-12T06:14:06.397Z,0.10
2023-01-12T06:16:32.969Z,0.30
2023-01-12T06:18:59.530Z,0.17
2023-01-12T06:21:26.145Z,0.10
2023-01-12T06:23:52.863Z,0.20
2023-01-12T06:26:19.541Z,0.10
2023-01-12T06:28:46.006Z,0.10
2023-01-12T06:31:13.961Z,0.25
2023-01-12T06:33:40.565Z,0.03
2023-01-12T06:36:08.015Z,0.10
2023-01-12T06:38:37.279Z,0.10
2023-01-12T06:41:06.091Z,0.10
2023-01-12T06:43:33.618Z,0.10
2023-01-12T06:46:00.950Z,0.00
2023-01-12T06:48:38.689Z,0.10
2023-01-12T06:51:06.292Z,0.43
2023-01-12T06:53:32.914Z,0.10
2023-01-12T06:55:59.697Z,0.10
2023-01-12T06:58:26.271Z,0.10
2023-01-12T07:00:52.774Z,0.13
2023-01-12T07:03:20.458Z,0.10
2023-01-12T07:05:47.159Z,0.10
2023-01-12T07:08:19.045Z,0.10
2023-01-12T07:10:46.111Z,0.10
2023-01-12T07:13:12.930Z,0.10
2023-01-12T07:15:39.420Z,0.10
2023-01-12T07:18:06.057Z,0.10
2023-01-12T07:20:33.230Z,0.10
2023-01-12T07:22:59.908Z,0.30
2023-01-12T07:25:27.299Z,0.10
2023-01-12T07:27:56.391Z,0.30
2023-01-12T07:30:24.826Z,0.10
2023-01-12T07:32:52.063Z,0.10
2023-01-12T07:35:19.392Z,0.30
2023-01-12T07:37:50.665Z,0.88
2023-01-12T07:40:17.920Z,0.10
2023-01-12T07:42:44.522Z,0.10
2023-01-12T07:45:11.921Z,0.20
2023-01-12T07:47:38.711Z,0.20
2023-01-12T07:50:06.357Z,0.30
2023-01-12T07:52:32.916Z,0.20
2023-01-12T07:54:59.436Z,0.23
2023-01-12T07:57:26.097Z,0.40
2023-01-12T07:59:52.545Z,0.20
2023-01-12T08:02:19.406Z,0.20
2023-01-12T08:04:47.002Z,0.20
2023-01-12T08:07:14.991Z,0.63
2023-01-12T08:09:41.494Z,0.60
2023-01-12T08:12:08.005Z,0.30
2023-01-12T08:14:40.175Z,0.40
2023-01-12T08:17:16.326Z,0.70
2023-01-12T08:19:49.009Z,0.30
2023-01-12T08:22:20.788Z,0.30
2023-01-12T08:25:10.724Z,0.30
2023-01-12T08:27:41.200Z,0.10
2023-01-12T08:30:09.011Z,0.20
2023-01-12T08:32:37.304Z,0.30
2023-01-12T08:35:14.157Z,0.20
2023-01-12T08:37:40.811Z,0.40
2023-01-12T08:40:08.770Z,1.88
2023-01-12T08:42:35.605Z,0.38
2023-01-12T08:45:02.147Z,1.00
2023-01-12T08:47:30.419Z,0.32
2023-01-12T08:50:07.194Z,0.60
2023-01-12T08:52:35.257Z,0.30
2023-01-12T08:55:01.873Z,0.30
2023-01-12T08:57:28.525Z,0.30
2023-01-12T08:59:55.001Z,0.40
2023-01-12T09:02:24.239Z,0.40
2023-01-12T09:04:50.757Z,0.25
2023-01-12T09:07:17.156Z,0.68
2023-01-12T09:09:43.679Z,0.40
2023-01-12T09:12:10.391Z,0.40
2023-01-12T09:14:38.881Z,1.38
2023-01-12T09:17:06.979Z,0.17
2023-01-12T09:19:33.450Z,0.65
2023-01-12T09:21:59.955Z,0.30
2023-01-12T09:24:26.761Z,0.30
2023-01-12T09:26:53.274Z,0.50
2023-01-12T09:29:19.664Z,0.43
2023-01-12T09:31:47.390Z,0.38
2023-01-12T09:34:14.846Z,0.87
2023-01-12T09:36:41.609Z,0.77
2023-01-12T09:39:10.316Z,0.40
2023-01-12T09:42:02.457Z,0.50
2023-01-12T09:44:53.449Z,0.45
2023-01-12T09:47:35.048Z,0.53
2023-01-12T09:50:25.080Z,0.77
2023-01-12T09:53:03.566Z,1.50
2023-01-12T09:55:46.701Z,1.23
2023-01-12T09:58:28.141Z,0.63
2023-01-12T10:00:57.864Z,0.60
2023-01-12T10:03:38.932Z,0.60
2023-01-12T10:06:06.587Z,0.80
2023-01-12T10:08:39.030Z,0.90
2023-01-12T10:11:12.037Z,0.70
2023-01-12T10:14:17.563Z,1.27
2023-01-12T10:17:23.928Z,1.23
2023-01-12T10:20:02.187Z,0.65
2023-01-12T10:22:39.710Z,1.70
2023-01-12T10:25:20.773Z,0.90
2023-01-12T10:27:50.325Z,0.73
2023-01-12T10:30:24.846Z,0.90
2023-01-12T10:32:51.355Z,0.90
2023-01-12T10:35:21.343Z,0.68
2023-01-12T10:37:51.792Z,0.52
2023-01-12T10:40:26.619Z,0.77
2023-01-12T10:43:22.351Z,0.52
2023-01-12T10:45:55.037Z,0.88
2023-01-12T10:48:22.448Z,0.80
2023-01-12T10:51:22.950Z,0.38
2023-01-12T10:54:03.541Z,0.40
2023-01-12T10:56:35.859Z,0.43
2023-01-12T10:59:13.588Z,0.40
2023-01-12T11:02:11.678Z,0.68
2023-01-12T11:04:51.475Z,0.40
2023-01-12T11:07:25.787Z,1.00
2023-01-12T11:09:53.858Z,0.30
2023-01-12T11:12:36.746Z,0.30
2023-01-12T11:15:09.302Z,0.40
2023-01-12T11:17:39.477Z,0.20
2023-01-12T11:20:18.443Z,0.20
2023-01-12T11:22:48.190Z,0.70
2023-01-12T11:25:43.336Z,0.50
2023-01-12T11:28:17.508Z,0.25
2023-01-12T11:30:52.758Z,0.40
2023-01-12T11:33:39.007Z,0.33
2023-01-12T11:36:09.534Z,0.30
2023-01-12T11:38:45.940Z,0.20
2023-01-12T11:41:26.704Z,0.20
2023-01-12T11:44:05.729Z,0.30
2023-01-12T11:46:38.178Z,0.20
2023-01-12T11:49:27.777Z,0.30
2023-01-12T11:51:56.968Z,0.75
2023-01-12T11:54:25.955Z,0.20
2023-01-12T11:57:16.940Z,0.28
2023-01-12T11:59:56.458Z,0.20
2023-01-12T12:02:57.880Z,0.20
2023-01-12T12:05:33.396Z,0.30
2023-01-12T12:08:23.976Z,0.10
2023-01-12T12:10:58.892Z,0.10
2023-01-12T12:13:28.021Z,0.13
2023-01-12T12:16:20.188Z,0.10
2023-01-12T12:19:09.641Z,0.15
2023-01-12T12:21:50.106Z,0.10
2023-01-12T12:24:41.339Z,0.10
2023-01-12T12:27:44.523Z,0.10
2023-01-12T12:30:24.058Z,0.10
2023-01-12T12:33:40.034Z,0.10
2023-01-12T12:36:19.415Z,0.20
2023-01-12T12:39:18.422Z,0.10
2023-01-12T12:42:31.432Z,0.20
2023-01-12T12:45:46.386Z,0.32
2023-01-12T12:52:00.920Z,0.22
2023-01-12T12:54:28.403Z,0.20
2023-01-12T12:56:55.875Z,0.28
2023-01-12T12:59:31.254Z,0.20
2023-01-12T13:02:00.209Z,0.00
2023-01-12T13:05:08.655Z,0.10
2023-01-12T13:07:41.397Z,0.05
2023-01-12T13:10:27.624Z,0.00
2023-01-12T13:13:43.791Z,0.00
2023-01-12T13:16:15.811Z,0.10
2023-01-12T13:19:11.493Z,0.00
2023-01-12T13:22:15.779Z,0.00
2023-01-12T13:24:42.443Z,0.00
2023-01-12T13:27:46.561Z,0.00
2023-01-12T13:30:28.546Z,0.00
2023-01-12T13:32:55.081Z,0.00
2023-01-12T13:35:33.901Z,0.00
2023-01-12T13:38:38.908Z,0.00
2023-01-12T13:41:18.003Z,0.10
2023-01-12T13:47:22.981Z,0.10
2023-01-12T13:49:56.421Z,0.10
2023-01-12T13:52:35.955Z,0.10
2023-01-12T13:55:05.132Z,0.10
2023-01-12T13:57:31.702Z,0.10
2023-01-12T14:00:23.804Z,0.15
2023-01-12T14:02:51.916Z,0.10
2023-01-12T14:05:42.653Z,0.10
2023-01-12T14:08:52.521Z,0.10
2023-01-12T14:11:25.128Z,0.28
2023-01-12T14:14:45.904Z,0.10
2023-01-12T14:17:44.788Z,0.10
2023-01-12T14:20:20.622Z,0.20
2023-01-12T14:22:47.906Z,0.10
2023-01-12T14:25:26.102Z,0.10
2023-01-12T14:27:54.820Z,0.10
2023-01-12T14:30:24.238Z,0.10
2023-01-12T14:32:51.771Z,0.10
2023-01-12T14:35:27.363Z,0.10
2023-01-12T14:38:03.036Z,0.20
2023-01-12T14:40:33.911Z,0.38
2023-01-12T14:43:21.396Z,0.10
2023-01-12T14:46:18.374Z,0.10
2023-01-12T14:49:21.723Z,0.13
2023-01-12T14:52:23.078Z,0.10
2023-01-12T14:54:49.787Z,0.10
2023-01-12T14:57:24.962Z,0.77
2023-01-12T14:59:53.911Z,0.10
2023-01-12T15:02:41.955Z,0.22
2023-01-12T15:05:11.774Z,0.10
2023-01-12T15:07:41.400Z,0.20
2023-01-12T15:10:11.097Z,0.20
2023-01-12T15:12:44.047Z,0.20
2023-01-12T15:15:47.606Z,0.20
2023-01-12T15:18:32.858Z,0.28
2023-01-12T15:21:19.160Z,0.10
2023-01-12T15:24:07.052Z,0.20
2023-01-12T15:26:33.915Z,0.10
2023-01-12T15:29:00.450Z,0.10
2023-01-12T15:31:34.610Z,0.10
2023-01-12T15:34:01.667Z,0.10
2023-01-12T15:36:28.554Z,0.32
2023-01-12T15:38:55.318Z,0.20
2023-01-12T15:41:46.578Z,0.20
2023-01-12T15:44:18.459Z,0.10
2023-01-12T15:46:45.401Z,0.20
2023-01-12T15:49:14.009Z,0.20
2023-01-12T15:51:41.817Z,0.93
2023-01-12T15:54:12.950Z,0.20
2023-01-12T15:56:40.185Z,0.20
2023-01-12T15:59:08.793Z,0.30
2023-01-12T16:01:42.513Z,0.20
2023-01-12T16:04:43.807Z,0.20
2023-01-12T16:07:13.730Z,0.20
2023-01-12T16:09:41.203Z,0.20
2023-01-12T16:12:08.825Z,0.15
2023-01-12T16:14:35.871Z,0.10
2023-01-12T16:17:04.809Z,0.20
2023-01-12T16:19:31.682Z,0.20
2023-01-12T16:21:58.393Z,0.20
2023-01-12T16:24:27.049Z,0.20
2023-01-12T16:26:53.899Z,0.10
2023-01-12T16:29:22.179Z,0.10
2023-01-12T16:31:49.275Z,0.10
2023-01-12T16:34:18.350Z,0.20
2023-01-12T16:36:45.370Z,0.10
2023-01-12T16:39:12.795Z,0.20
2023-01-12T16:41:39.319Z,0.57
2023-01-12T16:44:06.066Z,0.30
2023-01-12T16:46:32.521Z,0.20
2023-01-12T16:49:01.504Z,0.30
2023-01-12T16:51:28.078Z,0.20
2023-01-12T16:53:56.863Z,0.30
2023-01-12T16:56:26.636Z,0.20
2023-01-12T16:58:53.108Z,0.22
2023-01-12T17:01:22.012Z,0.20
2023-01-12T17:03:51.004Z,0.20
2023-01-12T17:06:20.373Z,0.20
2023-01-12T17:08:47.274Z,0.20
2023-01-12T17:11:19.237Z,0.30
2023-01-12T17:13:52.274Z,0.20
2023-01-12T17:16:19.461Z,0.30
2023-01-12T17:18:52.397Z,0.30
2023-01-12T17:21:19.755Z,0.40
2023-01-12T17:23:46.784Z,0.40
2023-01-12T17:26:17.735Z,0.30
2023-01-12T17:28:46.624Z,0.40
2023-01-12T17:31:27.512Z,0.20
2023-01-12T17:33:54.817Z,0.43
2023-01-12T17:36:21.559Z,0.68
2023-01-12T17:38:48.212Z,0.70
2023-01-12T17:41:35.694Z,0.40
2023-01-12T17:44:04.790Z,0.40
2023-01-12T17:46:31.889Z,0.30
2023-01-12T17:48:59.757Z,0.20
2023-01-12T17:51:26.659Z,0.20
2023-01-12T17:53:58.027Z,1.13
2023-01-12T17:56:25.956Z,0.40
2023-01-12T17:58:53.964Z,0.20
2023-01-12T18:01:23.520Z,0.20
2023-01-12T18:03:50.310Z,0.20
2023-01-12T18:06:25.770Z,0.30
2023-01-12T18:08:56.435Z,0.52
2023-01-12T18:12:16.015Z,0.30
2023-01-12T18:14:42.655Z,0.20
2023-01-12T18:17:11.238Z,0.50
2023-01-12T18:19:38.407Z,0.40
2023-01-12T18:22:07.012Z,0.90
2023-01-12T18:24:34.642Z,0.32
2023-01-12T18:29:43.410Z,0.30
2023-01-12T18:32:10.085Z,0.20
2023-01-12T18:34:38.662Z,0.30
2023-01-12T18:37:05.193Z,0.30
2023-01-12T18:39:31.692Z,0.45
2023-01-12T18:42:16.739Z,0.68
2023-01-12T18:44:43.195Z,1.15
2023-01-12T18:47:42.005Z,0.50
2023-01-12T18:50:48.257Z,0.60
2023-01-12T18:53:33.229Z,0.68
2023-01-12T18:56:02.716Z,0.45
2023-01-12T18:58:32.008Z,0.63
2023-01-12T19:01:07.326Z,0.68
2023-01-12T19:03:36.356Z,0.93
2023-01-12T19:06:34.803Z,0.90
2023-01-12T19:09:20.613Z,0.50
2023-01-12T19:11:49.211Z,0.30
2023-01-12T19:14:39.404Z,0.93
2023-01-12T19:17:42.007Z,0.80
2023-01-12T19:20:14.317Z,0.50
2023-01-12T19:23:00.700Z,0.50
2023-01-12T19:25:46.806Z,0.73
2023-01-12T19:28:35.762Z,0.60
2023-01-12T19:31:15.685Z,0.60
2023-01-12T19:33:42.712Z,0.70
2023-01-12T19:36:13.951Z,0.70
2023-01-12T19:38:43.354Z,0.90
2023-01-12T19:41:38.370Z,0.83
2023-01-12T19:44:05.778Z,0.70
2023-01-12T19:46:33.174Z,0.82
2023-01-12T19:49:00.121Z,0.93
2023-01-12T19:51:26.643Z,0.73
2023-01-12T19:53:53.173Z,1.17
2023-01-12T19:56:19.695Z,0.90
2023-01-12T20:01:54.135Z,0.82
2023-01-12T20:04:20.629Z,0.52
2023-01-12T20:06:47.168Z,0.50
2023-01-12T20:09:13.713Z,0.50
2023-01-12T20:11:40.322Z,0.40
2023-01-12T20:14:07.613Z,0.45
2023-01-12T20:16:34.110Z,0.40
2023-01-12T20:19:00.580Z,0.40
2023-01-12T20:21:27.083Z,0.43
2023-01-12T20:24:39.378Z,0.38
2023-01-12T20:27:05.988Z,1.67
2023-01-12T20:29:32.547Z,0.50
2023-01-12T20:32:01.967Z,0.50
2023-01-12T20:34:28.491Z,0.60
2023-01-12T20:36:54.966Z,0.50
2023-01-12T20:39:24.014Z,0.80
2023-01-12T20:41:50.556Z,0.60
2023-01-12T20:44:17.409Z,1.00
2023-01-12T20:46:43.971Z,0.50
2023-01-12T20:49:10.892Z,0.70
2023-01-12T20:51:37.663Z,0.52
2023-01-12T20:54:05.326Z,1.42
2023-01-12T20:56:32.261Z,1.30
2023-01-12T20:58:59.319Z,1.10
2023-01-12T21:01:26.064Z,0.87
2023-01-12T21:03:52.784Z,0.85
2023-01-12T21:06:19.307Z,0.30
2023-01-12T21:08:46.994Z,0.30
2023-01-12T21:11:19.560Z,0.10
2023-01-12T21:13:46.844Z,0.20
2023-01-12T21:16:16.492Z,0.57
2023-01-12T21:18:43.544Z,0.30
2023-01-12T21:21:35.225Z,0.30
2023-01-12T21:24:02.164Z,0.30
2023-01-12T21:26:28.753Z,0.38
2023-01-12T21:28:55.283Z,0.20
2023-01-12T21:31:21.856Z,0.10
2023-01-12T21:33:48.298Z,0.10
2023-01-12T21:36:14.830Z,0.17
2023-01-12T21:38:41.468Z,0.10
2023-01-12T21:41:07.921Z,0.43
2023-01-12T21:43:34.706Z,0.10
2023-01-12T21:46:07.286Z,0.10
2023-01-12T21:48:34.165Z,0.10
2023-01-12T21:51:05.687Z,0.10
2023-01-12T21:53:33.199Z,0.20
2023-01-12T21:56:02.206Z,0.95
2023-01-12T21:58:30.883Z,0.20
2023-01-12T22:00:58.287Z,0.57
2023-01-12T22:03:27.660Z,0.20
2023-01-12T22:05:54.876Z,0.30
2023-01-12T22:08:22.166Z,0.20
2023-01-12T22:10:48.644Z,0.30
2023-01-12T22:13:17.324Z,0.40
2023-01-12T22:15:43.911Z,0.60
2023-01-12T22:18:10.607Z,1.10
2023-01-12T22:20:40.021Z,0.43
2023-01-12T22:23:07.456Z,1.23
2023-01-12T22:25:33.871Z,0.55
2023-01-12T22:28:00.289Z,1.03
2023-01-12T22:30:27.802Z,0.90
2023-01-12T22:32:55.664Z,1.05
2023-01-12T22:35:22.782Z,1.10
2023-01-12T22:37:49.335Z,0.65
2023-01-12T22:40:15.984Z,1.57
2023-01-12T22:43:01.420Z,0.70
2023-01-12T22:45:30.856Z,1.30
2023-01-12T22:47:57.808Z,1.35
2023-01-12T22:50:24.833Z,0.95
2023-01-12T22:52:57.060Z,0.87
2023-01-12T22:59:06.806Z,1.20
2023-01-12T23:04:00.797Z,1.30
2023-01-12T23:06:28.083Z,1.55
2023-01-12T23:08:54.800Z,0.90
2023-01-12T23:11:26.467Z,1.17
2023-01-12T23:13:54.847Z,0.95
2023-01-12T23:16:21.694Z,1.30
2023-01-12T23:18:51.469Z,1.77
2023-01-12T23:21:24.889Z,1.25
2023-01-12T23:23:53.659Z,1.23
2023-01-12T23:26:31.647Z,1.52
2023-01-12T23:29:00.607Z,0.70
2023-01-12T23:31:55.741Z,1.23
2023-01-12T23:34:47.379Z,1.20
2023-01-12T23:37:14.625Z,2.20
2023-01-12T23:39:41.263Z,1.40
2023-01-12T23:42:09.017Z,1.67
2023-01-12T23:44:39.079Z,1.20
2023-01-12T23:47:08.907Z,1.67
2023-01-12T23:49:48.433Z,2.00
2023-01-12T23:52:17.073Z,1.52
2023-01-12T23:54:43.577Z,0.82
2023-01-12T23:57:10.077Z,1.60
2023-01-12T23:59:36.576Z,2.25
